sensor_id;sensor_type;location;lat;lon;timestamp;temperature;humidity
8253;DHT22;61313;48.396;10.008;2022-11-15T00:01:38;10.30;1.00
8253;DHT22;61313;48.396;10.008;2022-11-15T00:04:04;10.30;1.00
8253;DHT22;61313;48.396;10.008;2022-11-15T00:06:30;10.30;5.60
8253;DHT22;61313;48.396;10.008;2022-11-15T00:08:58;10.20;6.20
8253;DHT22;61313;48.396;10.008;2022-11-15T00:11:23;10.20;91.80
8253;DHT22;61313;48.396;10.008;2022-11-15T00:13:49;10.30;99.90
8253;DHT22;61313;48.396;10.008;2022-11-15T00:16:15;10.30;49.60
8253;DHT22;61313;48.396;10.008;2022-11-15T00:18:41;10.30;82.60
8253;DHT22;61313;48.396;10.008;2022-11-15T00:21:09;10.30;37.60
8253;DHT22;61313;48.396;10.008;2022-11-15T00:23:36;10.20;77.80
8253;DHT22;61313;48.396;10.008;2022-11-15T00:26:01;10.20;92.20
8253;DHT22;61313;48.396;10.008;2022-11-15T00:28:27;10.20;99.90
8253;DHT22;61313;48.396;10.008;2022-11-15T00:30:53;10.10;99.90
8253;DHT22;61313;48.396;10.008;2022-11-15T00:33:19;10.00;99.90
8253;DHT22;61313;48.396;10.008;2022-11-15T00:35:45;9.80;99.90
8253;DHT22;61313;48.396;10.008;2022-11-15T00:38:10;9.70;99.90
8253;DHT22;61313;48.396;10.008;2022-11-15T00:40:36;9.50;99.90
8253;DHT22;61313;48.396;10.008;2022-11-15T00:43:02;9.50;1.00
8253;DHT22;61313;48.396;10.008;2022-11-15T00:45:27;9.40;1.00
8253;DHT22;61313;48.396;10.008;2022-11-15T00:47:53;9.40;1.00
8253;DHT22;61313;48.396;10.008;2022-11-15T00:50:19;9.30;1.00
8253;DHT22;61313;48.396;10.008;2022-11-15T00:52:45;9.40;1.00
8253;DHT22;61313;48.396;10.008;2022-11-15T00:55:15;9.40;1.00
8253;DHT22;61313;48.396;10.008;2022-11-15T00:57:41;9.40;1.00
8253;DHT22;61313;48.396;10.008;2022-11-15T01:00:08;9.50;1.00
8253;DHT22;61313;48.396;10.008;2022-11-15T01:02:34;9.50;99.90
8253;DHT22;61313;48.396;10.008;2022-11-15T01:05:00;9.50;1.00
8253;DHT22;61313;48.396;10.008;2022-11-15T01:07:26;9.60;1.00
8253;DHT22;61313;48.396;10.008;2022-11-15T01:09:51;9.60;99.90
8253;DHT22;61313;48.396;10.008;2022-11-15T01:12:17;9.70;99.90
8253;DHT22;61313;48.396;10.008;2022-11-15T01:14:43;9.70;99.90
8253;DHT22;61313;48.396;10.008;2022-11-15T01:17:09;9.80;99.90
8253;DHT22;61313;48.396;10.008;2022-11-15T01:19:34;9.70;99.90
8253;DHT22;61313;48.396;10.008;2022-11-15T01:22:00;9.70;99.90
8253;DHT22;61313;48.396;10.008;2022-11-15T01:24:26;9.70;99.90
8253;DHT22;61313;48.396;10.008;2022-11-15T01:26:52;9.80;99.90
8253;DHT22;61313;48.396;10.008;2022-11-15T01:29:18;9.70;99.90
8253;DHT22;61313;48.396;10.008;2022-11-15T01:31:43;9.70;99.90
8253;DHT22;61313;48.396;10.008;2022-11-15T01:34:09;9.70;99.90
8253;DHT22;61313;48.396;10.008;2022-11-15T01:36:35;9.80;99.90
8253;DHT22;61313;48.396;10.008;2022-11-15T01:39:00;9.70;99.90
8253;DHT22;61313;48.396;10.008;2022-11-15T01:41:31;9.70;99.90
8253;DHT22;61313;48.396;10.008;2022-11-15T01:47:04;9.60;99.90
8253;DHT22;61313;48.396;10.008;2022-11-15T01:49:34;9.70;99.90
8253;DHT22;61313;48.396;10.008;2022-11-15T01:52:02;9.70;99.90
8253;DHT22;61313;48.396;10.008;2022-11-15T01:54:29;9.70;99.90
8253;DHT22;61313;48.396;10.008;2022-11-15T01:57:03;9.70;99.90
8253;DHT22;61313;48.396;10.008;2022-11-15T01:59:29;9.70;99.90
8253;DHT22;61313;48.396;10.008;2022-11-15T02:01:56;9.60;99.90
8253;DHT22;61313;48.396;10.008;2022-11-15T02:04:45;9.60;99.90
8253;DHT22;61313;48.396;10.008;2022-11-15T02:07:13;9.60;99.90
8253;DHT22;61313;48.396;10.008;2022-11-15T02:09:40;9.50;99.90
8253;DHT22;61313;48.396;10.008;2022-11-15T02:12:07;9.60;99.90
8253;DHT22;61313;48.396;10.008;2022-11-15T02:14:36;9.60;99.90
8253;DHT22;61313;48.396;10.008;2022-11-15T02:20:39;9.60;99.90
8253;DHT22;61313;48.396;10.008;2022-11-15T02:36:06;8.80;1.00
8253;DHT22;61313;48.396;10.008;2022-11-15T02:41:20;8.70;1.00
8253;DHT22;61313;48.396;10.008;2022-11-15T02:44:03;8.70;1.00
8253;DHT22;61313;48.396;10.008;2022-11-15T02:49:51;8.90;1.00
8253;DHT22;61313;48.396;10.008;2022-11-15T02:52:20;8.90;1.00
8253;DHT22;61313;48.396;10.008;2022-11-15T02:55:00;8.80;1.00
8253;DHT22;61313;48.396;10.008;2022-11-15T03:00:18;8.60;1.00
8253;DHT22;61313;48.396;10.008;2022-11-15T03:03:10;8.60;1.00
8253;DHT22;61313;48.396;10.008;2022-11-15T03:11:19;8.30;1.00
8253;DHT22;61313;48.396;10.008;2022-11-15T03:19:39;8.30;1.00
8253;DHT22;61313;48.396;10.008;2022-11-15T03:22:11;8.40;1.00
8253;DHT22;61313;48.396;10.008;2022-11-15T03:24:38;8.50;1.00
8253;DHT22;61313;48.396;10.008;2022-11-15T03:27:07;8.50;1.00
8253;DHT22;61313;48.396;10.008;2022-11-15T03:29:39;8.60;1.00
8253;DHT22;61313;48.396;10.008;2022-11-15T03:32:14;8.70;1.00
8253;DHT22;61313;48.396;10.008;2022-11-15T03:37:11;8.70;1.00
8253;DHT22;61313;48.396;10.008;2022-11-15T03:39:39;8.70;1.00
8253;DHT22;61313;48.396;10.008;2022-11-15T03:42:20;8.70;1.00
8253;DHT22;61313;48.396;10.008;2022-11-15T03:44:55;8.70;1.00
8253;DHT22;61313;48.396;10.008;2022-11-15T03:47:29;8.60;1.00
8253;DHT22;61313;48.396;10.008;2022-11-15T03:50:04;8.60;1.00
8253;DHT22;61313;48.396;10.008;2022-11-15T03:52:33;8.50;1.00
8253;DHT22;61313;48.396;10.008;2022-11-15T03:55:02;8.40;1.00
8253;DHT22;61313;48.396;10.008;2022-11-15T03:57:28;8.30;1.00
8253;DHT22;61313;48.396;10.008;2022-11-15T03:59:54;8.40;1.00
8253;DHT22;61313;48.396;10.008;2022-11-15T04:02:20;8.20;1.00
8253;DHT22;61313;48.396;10.008;2022-11-15T04:04:45;8.10;1.00
8253;DHT22;61313;48.396;10.008;2022-11-15T04:07:11;8.10;1.00
8253;DHT22;61313;48.396;10.008;2022-11-15T04:09:37;8.10;1.00
8253;DHT22;61313;48.396;10.008;2022-11-15T04:12:21;8.20;1.00
8253;DHT22;61313;48.396;10.008;2022-11-15T04:14:57;8.30;1.00
8253;DHT22;61313;48.396;10.008;2022-11-15T04:17:54;8.30;1.00
8253;DHT22;61313;48.396;10.008;2022-11-15T04:23:05;8.40;1.00
8253;DHT22;61313;48.396;10.008;2022-11-15T04:25:52;8.40;1.00
8253;DHT22;61313;48.396;10.008;2022-11-15T04:28:18;8.50;1.00
8253;DHT22;61313;48.396;10.008;2022-11-15T04:30:44;8.50;1.00
8253;DHT22;61313;48.396;10.008;2022-11-15T04:33:10;8.50;1.00
8253;DHT22;61313;48.396;10.008;2022-11-15T04:35:36;8.50;1.00
8253;DHT22;61313;48.396;10.008;2022-11-15T04:38:03;8.50;1.00
8253;DHT22;61313;48.396;10.008;2022-11-15T04:40:29;8.50;1.00
8253;DHT22;61313;48.396;10.008;2022-11-15T04:42:55;8.30;1.00
8253;DHT22;61313;48.396;10.008;2022-11-15T04:45:21;8.10;1.00
8253;DHT22;61313;48.396;10.008;2022-11-15T04:47:47;8.20;1.00
8253;DHT22;61313;48.396;10.008;2022-11-15T04:50:14;8.60;1.00
8253;DHT22;61313;48.396;10.008;2022-11-15T04:52:51;10.40;1.00
8253;DHT22;61313;48.396;10.008;2022-11-15T04:55:17;10.20;1.00
8253;DHT22;61313;48.396;10.008;2022-11-15T04:57:43;9.50;99.90
8253;DHT22;61313;48.396;10.008;2022-11-15T05:00:12;9.10;1.00
8253;DHT22;61313;48.396;10.008;2022-11-15T05:02:38;8.80;99.90
8253;DHT22;61313;48.396;10.008;2022-11-15T05:05:23;8.70;1.00
8253;DHT22;61313;48.396;10.008;2022-11-15T05:07:49;8.60;1.00
8253;DHT22;61313;48.396;10.008;2022-11-15T05:10:15;8.50;1.00
8253;DHT22;61313;48.396;10.008;2022-11-15T05:12:40;8.50;1.00
8253;DHT22;61313;48.396;10.008;2022-11-15T05:15:06;8.40;1.00
8253;DHT22;61313;48.396;10.008;2022-11-15T05:17:32;8.30;1.00
8253;DHT22;61313;48.396;10.008;2022-11-15T05:19:58;8.20;1.00
8253;DHT22;61313;48.396;10.008;2022-11-15T05:22:24;8.30;1.00
8253;DHT22;61313;48.396;10.008;2022-11-15T05:24:49;8.40;1.00
8253;DHT22;61313;48.396;10.008;2022-11-15T05:27:15;8.40;1.00
8253;DHT22;61313;48.396;10.008;2022-11-15T05:29:41;8.40;1.00
8253;DHT22;61313;48.396;10.008;2022-11-15T05:32:08;8.50;1.00
8253;DHT22;61313;48.396;10.008;2022-11-15T05:34:34;8.50;1.00
8253;DHT22;61313;48.396;10.008;2022-11-15T05:37:00;8.40;1.00
8253;DHT22;61313;48.396;10.008;2022-11-15T05:39:26;8.40;1.00
8253;DHT22;61313;48.396;10.008;2022-11-15T05:42:00;8.40;1.00
8253;DHT22;61313;48.396;10.008;2022-11-15T05:44:26;8.40;1.00
8253;DHT22;61313;48.396;10.008;2022-11-15T05:46:54;8.50;1.00
8253;DHT22;61313;48.396;10.008;2022-11-15T05:49:23;8.50;1.00
8253;DHT22;61313;48.396;10.008;2022-11-15T05:51:51;8.50;1.00
8253;DHT22;61313;48.396;10.008;2022-11-15T05:54:17;8.40;1.00
8253;DHT22;61313;48.396;10.008;2022-11-15T05:56:44;8.50;1.00
8253;DHT22;61313;48.396;10.008;2022-11-15T05:59:10;8.40;1.00
8253;DHT22;61313;48.396;10.008;2022-11-15T06:01:37;8.40;1.00
8253;DHT22;61313;48.396;10.008;2022-11-15T06:04:03;8.30;1.00
8253;DHT22;61313;48.396;10.008;2022-11-15T06:06:29;8.40;1.00
8253;DHT22;61313;48.396;10.008;2022-11-15T06:08:54;8.10;1.00
8253;DHT22;61313;48.396;10.008;2022-11-15T06:11:20;8.00;1.00
8253;DHT22;61313;48.396;10.008;2022-11-15T06:13:46;7.70;1.00
8253;DHT22;61313;48.396;10.008;2022-11-15T06:16:11;7.60;1.00
8253;DHT22;61313;48.396;10.008;2022-11-15T06:18:37;7.60;1.00
8253;DHT22;61313;48.396;10.008;2022-11-15T06:21:04;7.60;1.00
8253;DHT22;61313;48.396;10.008;2022-11-15T06:23:34;7.60;1.00
8253;DHT22;61313;48.396;10.008;2022-11-15T06:26:00;7.70;1.00
8253;DHT22;61313;48.396;10.008;2022-11-15T06:28:33;7.70;1.00
8253;DHT22;61313;48.396;10.008;2022-11-15T06:31:10;7.50;1.00
8253;DHT22;61313;48.396;10.008;2022-11-15T06:33:39;7.40;1.00
8253;DHT22;61313;48.396;10.008;2022-11-15T06:36:08;7.40;1.00
8253;DHT22;61313;48.396;10.008;2022-11-15T06:38:34;7.50;1.00
8253;DHT22;61313;48.396;10.008;2022-11-15T06:41:08;7.60;1.00
8253;DHT22;61313;48.396;10.008;2022-11-15T06:43:35;7.80;1.00
8253;DHT22;61313;48.396;10.008;2022-11-15T06:46:02;7.80;1.00
8253;DHT22;61313;48.396;10.008;2022-11-15T06:48:29;8.20;1.00
8253;DHT22;61313;48.396;10.008;2022-11-15T06:50:56;8.40;1.00
8253;DHT22;61313;48.396;10.008;2022-11-15T06:53:23;8.50;99.90
8253;DHT22;61313;48.396;10.008;2022-11-15T06:55:49;9.30;1.00
8253;DHT22;61313;48.396;10.008;2022-11-15T06:58:15;9.80;1.00
8253;DHT22;61313;48.396;10.008;2022-11-15T07:00:41;10.40;99.90
8253;DHT22;61313;48.396;10.008;2022-11-15T07:03:07;10.70;99.90
8253;DHT22;61313;48.396;10.008;2022-11-15T07:05:33;10.80;1.00
8253;DHT22;61313;48.396;10.008;2022-11-15T07:07:59;10.80;1.00
8253;DHT22;61313;48.396;10.008;2022-11-15T07:10:26;11.20;1.00
8253;DHT22;61313;48.396;10.008;2022-11-15T07:12:52;11.60;99.90
8253;DHT22;61313;48.396;10.008;2022-11-15T07:15:22;11.80;99.90
8253;DHT22;61313;48.396;10.008;2022-11-15T07:17:48;11.60;99.90
8253;DHT22;61313;48.396;10.008;2022-11-15T07:20:14;12.00;99.90
8253;DHT22;61313;48.396;10.008;2022-11-15T07:22:41;13.40;1.00
8253;DHT22;61313;48.396;10.008;2022-11-15T07:25:07;14.40;1.00
8253;DHT22;61313;48.396;10.008;2022-11-15T07:27:33;15.20;1.00
8253;DHT22;61313;48.396;10.008;2022-11-15T07:29:59;16.00;99.90
8253;DHT22;61313;48.396;10.008;2022-11-15T07:32:24;16.50;99.90
8253;DHT22;61313;48.396;10.008;2022-11-15T07:34:50;16.30;99.90
8253;DHT22;61313;48.396;10.008;2022-11-15T07:37:16;16.00;99.90
8253;DHT22;61313;48.396;10.008;2022-11-15T07:39:42;15.90;99.90
8253;DHT22;61313;48.396;10.008;2022-11-15T07:42:08;15.50;99.90
8253;DHT22;61313;48.396;10.008;2022-11-15T07:44:52;16.30;99.90
8253;DHT22;61313;48.396;10.008;2022-11-15T07:47:18;17.20;99.90
8253;DHT22;61313;48.396;10.008;2022-11-15T07:49:44;17.70;99.90
8253;DHT22;61313;48.396;10.008;2022-11-15T07:52:11;18.40;99.90
8253;DHT22;61313;48.396;10.008;2022-11-15T07:54:37;17.50;99.90
8253;DHT22;61313;48.396;10.008;2022-11-15T07:57:03;18.00;99.90
8253;DHT22;61313;48.396;10.008;2022-11-15T07:59:28;18.20;99.90
8253;DHT22;61313;48.396;10.008;2022-11-15T08:01:54;18.50;99.90
8253;DHT22;61313;48.396;10.008;2022-11-15T08:04:20;19.40;99.90
8253;DHT22;61313;48.396;10.008;2022-11-15T08:06:45;19.60;99.90
8253;DHT22;61313;48.396;10.008;2022-11-15T08:09:11;19.60;99.90
8253;DHT22;61313;48.396;10.008;2022-11-15T08:11:37;19.50;99.90
8253;DHT22;61313;48.396;10.008;2022-11-15T08:14:03;20.10;99.90
8253;DHT22;61313;48.396;10.008;2022-11-15T08:16:28;20.60;99.90
8253;DHT22;61313;48.396;10.008;2022-11-15T08:18:54;20.40;99.90
8253;DHT22;61313;48.396;10.008;2022-11-15T08:21:20;20.40;99.90
8253;DHT22;61313;48.396;10.008;2022-11-15T08:23:47;20.20;99.90
8253;DHT22;61313;48.396;10.008;2022-11-15T08:26:13;19.80;99.90
8253;DHT22;61313;48.396;10.008;2022-11-15T08:28:38;19.30;99.90
8253;DHT22;61313;48.396;10.008;2022-11-15T08:31:04;18.80;99.90
8253;DHT22;61313;48.396;10.008;2022-11-15T08:33:31;18.90;99.90
8253;DHT22;61313;48.396;10.008;2022-11-15T08:35:59;19.90;99.90
8253;DHT22;61313;48.396;10.008;2022-11-15T08:38:25;20.70;99.90
8253;DHT22;61313;48.396;10.008;2022-11-15T08:41:00;21.50;99.90
8253;DHT22;61313;48.396;10.008;2022-11-15T08:43:26;21.30;99.90
8253;DHT22;61313;48.396;10.008;2022-11-15T08:45:56;20.90;99.90
8253;DHT22;61313;48.396;10.008;2022-11-15T08:48:21;21.50;99.90
8253;DHT22;61313;48.396;10.008;2022-11-15T08:50:47;21.80;99.90
8253;DHT22;61313;48.396;10.008;2022-11-15T08:53:13;21.20;99.90
8253;DHT22;61313;48.396;10.008;2022-11-15T08:55:40;19.40;99.90
8253;DHT22;61313;48.396;10.008;2022-11-15T08:58:06;17.80;99.90
8253;DHT22;61313;48.396;10.008;2022-11-15T09:00:33;16.50;99.90
8253;DHT22;61313;48.396;10.008;2022-11-15T09:02:59;15.40;99.90
8253;DHT22;61313;48.396;10.008;2022-11-15T09:05:25;14.80;99.90
8253;DHT22;61313;48.396;10.008;2022-11-15T09:07:54;14.70;99.90
8253;DHT22;61313;48.396;10.008;2022-11-15T09:10:21;14.60;99.90
8253;DHT22;61313;48.396;10.008;2022-11-15T09:12:46;14.50;99.90
8253;DHT22;61313;48.396;10.008;2022-11-15T09:15:15;14.10;99.90
8253;DHT22;61313;48.396;10.008;2022-11-15T09:17:41;14.40;99.90
8253;DHT22;61313;48.396;10.008;2022-11-15T09:20:07;14.70;99.90
8253;DHT22;61313;48.396;10.008;2022-11-15T09:22:33;14.80;99.90
8253;DHT22;61313;48.396;10.008;2022-11-15T09:24:59;15.10;99.90
8253;DHT22;61313;48.396;10.008;2022-11-15T09:27:28;15.30;99.90
8253;DHT22;61313;48.396;10.008;2022-11-15T09:29:54;15.60;99.90
8253;DHT22;61313;48.396;10.008;2022-11-15T09:32:20;15.80;99.90
8253;DHT22;61313;48.396;10.008;2022-11-15T09:34:46;16.10;99.90
8253;DHT22;61313;48.396;10.008;2022-11-15T09:37:11;16.30;99.90
8253;DHT22;61313;48.396;10.008;2022-11-15T09:39:37;15.60;99.90
8253;DHT22;61313;48.396;10.008;2022-11-15T09:44:42;14.20;99.90
8253;DHT22;61313;48.396;10.008;2022-11-15T09:50:00;13.60;99.90
8253;DHT22;61313;48.396;10.008;2022-11-15T09:52:27;13.90;99.90
8253;DHT22;61313;48.396;10.008;2022-11-15T09:54:53;14.60;99.90
8253;DHT22;61313;48.396;10.008;2022-11-15T10:00:07;14.90;99.90
8253;DHT22;61313;48.396;10.008;2022-11-15T10:02:43;14.20;99.90
8253;DHT22;61313;48.396;10.008;2022-11-15T10:05:16;13.80;99.90
8253;DHT22;61313;48.396;10.008;2022-11-15T10:10:46;13.80;99.90
8253;DHT22;61313;48.396;10.008;2022-11-15T10:13:41;13.80;99.90
8253;DHT22;61313;48.396;10.008;2022-11-15T10:24:29;14.00;99.90
8253;DHT22;61313;48.396;10.008;2022-11-15T10:27:00;14.80;99.90
8253;DHT22;61313;48.396;10.008;2022-11-15T10:29:25;15.60;99.90
8253;DHT22;61313;48.396;10.008;2022-11-15T10:31:52;15.80;99.90
8253;DHT22;61313;48.396;10.008;2022-11-15T10:34:20;16.00;99.90
8253;DHT22;61313;48.396;10.008;2022-11-15T10:39:21;16.30;99.90
8253;DHT22;61313;48.396;10.008;2022-11-15T10:41:47;15.80;99.90
8253;DHT22;61313;48.396;10.008;2022-11-15T10:44:31;16.00;99.90
8253;DHT22;61313;48.396;10.008;2022-11-15T10:49:28;16.30;99.90
8253;DHT22;61313;48.396;10.008;2022-11-15T10:54:37;16.80;99.90
8253;DHT22;61313;48.396;10.008;2022-11-15T10:57:15;17.00;99.90
8253;DHT22;61313;48.396;10.008;2022-11-15T10:59:47;17.10;99.90
8253;DHT22;61313;48.396;10.008;2022-11-15T11:02:55;17.20;99.90
8253;DHT22;61313;48.396;10.008;2022-11-15T11:07:58;16.70;99.90
8253;DHT22;61313;48.396;10.008;2022-11-15T11:10:24;16.70;99.90
8253;DHT22;61313;48.396;10.008;2022-11-15T11:12:50;16.70;99.90
8253;DHT22;61313;48.396;10.008;2022-11-15T11:15:17;16.70;99.90
8253;DHT22;61313;48.396;10.008;2022-11-15T11:18:01;16.70;99.90
8253;DHT22;61313;48.396;10.008;2022-11-15T11:21:10;16.70;99.90
8253;DHT22;61313;48.396;10.008;2022-11-15T11:24:08;16.50;99.90
8253;DHT22;61313;48.396;10.008;2022-11-15T11:32:28;16.50;99.90
8253;DHT22;61313;48.396;10.008;2022-11-15T11:35:02;16.70;99.90
8253;DHT22;61313;48.396;10.008;2022-11-15T11:43:06;16.70;99.90
8253;DHT22;61313;48.396;10.008;2022-11-15T11:48:41;16.10;99.90
8253;DHT22;61313;48.396;10.008;2022-11-15T11:51:21;15.90;99.90
8253;DHT22;61313;48.396;10.008;2022-11-15T11:54:32;15.90;99.90
8253;DHT22;61313;48.396;10.008;2022-11-15T11:56:53;16.00;99.90
8253;DHT22;61313;48.396;10.008;2022-11-15T11:59:43;16.20;99.90
8253;DHT22;61313;48.396;10.008;2022-11-15T12:02:37;16.40;99.90
8253;DHT22;61313;48.396;10.008;2022-11-15T12:05:18;16.40;99.90
8253;DHT22;61313;48.396;10.008;2022-11-15T12:07:46;16.40;99.90
8253;DHT22;61313;48.396;10.008;2022-11-15T12:10:33;16.50;99.90
8253;DHT22;61313;48.396;10.008;2022-11-15T12:13:11;16.50;99.90
8253;DHT22;61313;48.396;10.008;2022-11-15T12:15:51;16.00;99.90
8253;DHT22;61313;48.396;10.008;2022-11-15T12:18:18;16.00;99.90
8253;DHT22;61313;48.396;10.008;2022-11-15T12:20:58;16.10;99.90
8253;DHT22;61313;48.396;10.008;2022-11-15T12:23:31;16.30;99.90
8253;DHT22;61313;48.396;10.008;2022-11-15T12:26:05;16.50;99.90
8253;DHT22;61313;48.396;10.008;2022-11-15T12:28:40;16.50;99.90
8253;DHT22;61313;48.396;10.008;2022-11-15T12:31:30;16.60;99.90
8253;DHT22;61313;48.396;10.008;2022-11-15T12:33:58;16.50;99.90
8253;DHT22;61313;48.396;10.008;2022-11-15T12:41:17;16.00;99.90
8253;DHT22;61313;48.396;10.008;2022-11-15T12:43:44;15.70;99.90
8253;DHT22;61313;48.396;10.008;2022-11-15T12:46:14;15.40;99.90
8253;DHT22;61313;48.396;10.008;2022-11-15T12:48:50;15.30;99.90
8253;DHT22;61313;48.396;10.008;2022-11-15T12:51:19;15.10;99.90
8253;DHT22;61313;48.396;10.008;2022-11-15T12:53:45;15.30;99.90
8253;DHT22;61313;48.396;10.008;2022-11-15T12:58:48;15.20;99.90
8253;DHT22;61313;48.396;10.008;2022-11-15T13:04:28;15.00;99.90
8253;DHT22;61313;48.396;10.008;2022-11-15T13:06:55;15.00;99.90
8253;DHT22;61313;48.396;10.008;2022-11-15T13:12:09;15.30;99.90
8253;DHT22;61313;48.396;10.008;2022-11-15T13:17:37;15.30;99.90
8253;DHT22;61313;48.396;10.008;2022-11-15T13:25:40;15.40;99.90
8253;DHT22;61313;48.396;10.008;2022-11-15T13:30:56;15.30;99.90
8253;DHT22;61313;48.396;10.008;2022-11-15T13:33:32;15.20;99.90
8253;DHT22;61313;48.396;10.008;2022-11-15T13:36:02;15.10;99.90
8253;DHT22;61313;48.396;10.008;2022-11-15T13:38:31;15.00;99.90
8253;DHT22;61313;48.396;10.008;2022-11-15T13:40:59;14.90;99.90
8253;DHT22;61313;48.396;10.008;2022-11-15T13:43:34;14.90;99.90
8253;DHT22;61313;48.396;10.008;2022-11-15T13:48:36;14.80;99.90
8253;DHT22;61313;48.396;10.008;2022-11-15T13:51:06;14.80;99.90
8253;DHT22;61313;48.396;10.008;2022-11-15T13:53:34;14.80;99.90
8253;DHT22;61313;48.396;10.008;2022-11-15T13:56:02;14.70;99.90
8253;DHT22;61313;48.396;10.008;2022-11-15T13:58:29;14.70;99.90
8253;DHT22;61313;48.396;10.008;2022-11-15T14:01:02;14.60;99.90
8253;DHT22;61313;48.396;10.008;2022-11-15T14:03:31;14.60;99.90
8253;DHT22;61313;48.396;10.008;2022-11-15T14:08:33;14.60;99.90
8253;DHT22;61313;48.396;10.008;2022-11-15T14:11:18;14.50;99.90
8253;DHT22;61313;48.396;10.008;2022-11-15T14:16:36;14.60;99.90
8253;DHT22;61313;48.396;10.008;2022-11-15T14:19:05;14.50;99.90
8253;DHT22;61313;48.396;10.008;2022-11-15T14:21:31;14.60;99.90
8253;DHT22;61313;48.396;10.008;2022-11-15T14:24:16;14.50;99.90
8253;DHT22;61313;48.396;10.008;2022-11-15T14:26:42;14.30;99.90
8253;DHT22;61313;48.396;10.008;2022-11-15T14:29:27;14.40;99.90
8253;DHT22;61313;48.396;10.008;2022-11-15T14:31:54;14.40;99.90
8253;DHT22;61313;48.396;10.008;2022-11-15T14:34:32;14.40;99.90
8253;DHT22;61313;48.396;10.008;2022-11-15T14:36:58;14.40;99.90
8253;DHT22;61313;48.396;10.008;2022-11-15T14:39:23;14.40;99.90
8253;DHT22;61313;48.396;10.008;2022-11-15T14:41:50;14.20;99.90
8253;DHT22;61313;48.396;10.008;2022-11-15T14:44:16;13.90;99.90
8253;DHT22;61313;48.396;10.008;2022-11-15T14:46:44;13.90;1.00
8253;DHT22;61313;48.396;10.008;2022-11-15T14:49:09;13.90;1.00
8253;DHT22;61313;48.396;10.008;2022-11-15T14:51:35;13.90;1.00
8253;DHT22;61313;48.396;10.008;2022-11-15T14:54:01;14.00;1.00
8253;DHT22;61313;48.396;10.008;2022-11-15T14:56:26;13.90;1.00
8253;DHT22;61313;48.396;10.008;2022-11-15T14:58:52;13.70;1.00
8253;DHT22;61313;48.396;10.008;2022-11-15T15:01:25;13.60;1.00
8253;DHT22;61313;48.396;10.008;2022-11-15T15:03:52;13.30;1.00
8253;DHT22;61313;48.396;10.008;2022-11-15T15:06:19;13.40;1.00
8253;DHT22;61313;48.396;10.008;2022-11-15T15:08:45;13.50;1.00
8253;DHT22;61313;48.396;10.008;2022-11-15T15:11:25;13.60;1.00
8253;DHT22;61313;48.396;10.008;2022-11-15T15:13:52;13.70;1.00
8253;DHT22;61313;48.396;10.008;2022-11-15T15:16:18;13.60;1.00
8253;DHT22;61313;48.396;10.008;2022-11-15T15:18:44;13.50;1.00
8253;DHT22;61313;48.396;10.008;2022-11-15T15:21:28;13.40;1.00
8253;DHT22;61313;48.396;10.008;2022-11-15T15:23:56;13.40;1.00
8253;DHT22;61313;48.396;10.008;2022-11-15T15:26:23;13.50;1.00
8253;DHT22;61313;48.396;10.008;2022-11-15T15:28:49;13.60;1.00
8253;DHT22;61313;48.396;10.008;2022-11-15T15:31:16;13.40;1.00
8253;DHT22;61313;48.396;10.008;2022-11-15T15:33:42;13.30;1.00
8253;DHT22;61313;48.396;10.008;2022-11-15T15:36:12;13.40;1.00
8253;DHT22;61313;48.396;10.008;2022-11-15T15:38:38;13.50;1.00
8253;DHT22;61313;48.396;10.008;2022-11-15T15:41:13;13.50;1.00
8253;DHT22;61313;48.396;10.008;2022-11-15T15:43:39;13.40;1.00
8253;DHT22;61313;48.396;10.008;2022-11-15T15:46:09;13.50;1.00
8253;DHT22;61313;48.396;10.008;2022-11-15T15:48:35;13.60;99.90
8253;DHT22;61313;48.396;10.008;2022-11-15T15:51:03;13.40;1.00
8253;DHT22;61313;48.396;10.008;2022-11-15T15:53:29;13.40;1.00
8253;DHT22;61313;48.396;10.008;2022-11-15T15:55:55;13.30;14.70
8253;DHT22;61313;48.396;10.008;2022-11-15T15:58:21;13.30;20.70
8253;DHT22;61313;48.396;10.008;2022-11-15T16:00:47;13.20;99.90
8253;DHT22;61313;48.396;10.008;2022-11-15T16:03:12;13.30;99.90
8253;DHT22;61313;48.396;10.008;2022-11-15T16:05:38;13.30;99.90
8253;DHT22;61313;48.396;10.008;2022-11-15T16:08:04;13.40;99.90
8253;DHT22;61313;48.396;10.008;2022-11-15T16:10:32;13.40;99.90
8253;DHT22;61313;48.396;10.008;2022-11-15T16:12:59;13.50;99.90
8253;DHT22;61313;48.396;10.008;2022-11-15T16:15:29;13.40;51.90
8253;DHT22;61313;48.396;10.008;2022-11-15T16:17:57;13.30;99.90
8253;DHT22;61313;48.396;10.008;2022-11-15T16:23:03;13.30;99.90
8253;DHT22;61313;48.396;10.008;2022-11-15T16:25:32;13.40;99.90
8253;DHT22;61313;48.396;10.008;2022-11-15T16:27:59;13.30;99.90
8253;DHT22;61313;48.396;10.008;2022-11-15T16:30:24;13.30;99.90
8253;DHT22;61313;48.396;10.008;2022-11-15T16:32:50;13.20;99.90
8253;DHT22;61313;48.396;10.008;2022-11-15T16:35:16;13.10;99.90
8253;DHT22;61313;48.396;10.008;2022-11-15T16:37:42;13.10;99.90
8253;DHT22;61313;48.396;10.008;2022-11-15T16:40:32;13.10;99.90
8253;DHT22;61313;48.396;10.008;2022-11-15T16:42:58;13.00;1.00
8253;DHT22;61313;48.396;10.008;2022-11-15T16:45:29;13.10;1.00
8253;DHT22;61313;48.396;10.008;2022-11-15T16:47:56;13.20;1.00
8253;DHT22;61313;48.396;10.008;2022-11-15T16:50:27;13.20;1.00
8253;DHT22;61313;48.396;10.008;2022-11-15T16:52:54;13.20;1.00
8253;DHT22;61313;48.396;10.008;2022-11-15T16:55:21;13.30;1.00
8253;DHT22;61313;48.396;10.008;2022-11-15T16:57:47;13.20;1.00
8253;DHT22;61313;48.396;10.008;2022-11-15T17:00:14;13.20;1.00
8253;DHT22;61313;48.396;10.008;2022-11-15T17:02:42;13.20;1.00
8253;DHT22;61313;48.396;10.008;2022-11-15T17:05:08;13.00;1.00
8253;DHT22;61313;48.396;10.008;2022-11-15T17:07:34;13.00;1.00
8253;DHT22;61313;48.396;10.008;2022-11-15T17:10:00;12.90;1.00
8253;DHT22;61313;48.396;10.008;2022-11-15T17:12:26;13.00;1.00
8253;DHT22;61313;48.396;10.008;2022-11-15T17:14:51;13.10;1.00
8253;DHT22;61313;48.396;10.008;2022-11-15T17:17:17;13.10;1.00
8253;DHT22;61313;48.396;10.008;2022-11-15T17:19:43;13.10;1.00
8253;DHT22;61313;48.396;10.008;2022-11-15T17:22:08;13.00;1.00
8253;DHT22;61313;48.396;10.008;2022-11-15T17:24:34;13.00;1.00
8253;DHT22;61313;48.396;10.008;2022-11-15T17:27:00;12.90;1.00
8253;DHT22;61313;48.396;10.008;2022-11-15T17:29:25;12.90;30.20
8253;DHT22;61313;48.396;10.008;2022-11-15T17:31:51;12.80;99.90
8253;DHT22;61313;48.396;10.008;2022-11-15T17:34:17;12.70;99.90
8253;DHT22;61313;48.396;10.008;2022-11-15T17:36:42;12.70;99.90
8253;DHT22;61313;48.396;10.008;2022-11-15T17:39:08;12.60;1.00
8253;DHT22;61313;48.396;10.008;2022-11-15T17:41:34;12.60;1.00
8253;DHT22;61313;48.396;10.008;2022-11-15T17:44:00;12.70;1.00
8253;DHT22;61313;48.396;10.008;2022-11-15T17:46:28;12.70;99.90
8253;DHT22;61313;48.396;10.008;2022-11-15T17:48:55;12.80;99.90
8253;DHT22;61313;48.396;10.008;2022-11-15T17:51:21;12.70;99.90
8253;DHT22;61313;48.396;10.008;2022-11-15T17:53:48;12.70;1.00
8253;DHT22;61313;48.396;10.008;2022-11-15T17:56:17;12.60;1.00
8253;DHT22;61313;48.396;10.008;2022-11-15T17:58:47;12.50;1.00